Taylorville, IL (62568)

11:04 AM CDT on August 30, 2015 (GMT -0500)
RURAL KINCAID IL USA | | Change Station
CLOSE
Current Station
Personal Weather Station
Location: PAWNEE, IL
Elevation: 610 ft
Nearby Weather Stations

Elev 610 ft 39.57 °N, 89.43 °W | Updated 5 seconds ago

Scattered Clouds
Scattered Clouds
84.2 °F
Feels Like 84 °F
N
1.0
Wind Variable Wind from ESE
Gusts 2.0 mph

Today
High -- | Low -- °F
--% Chance of Precip.
Yesterday
High -- | Low -- °F
Precip. -- in
6:23 AM 7:31 PM
Full, 99% visible
Pressure 30.08 in
Visibility 10.0 miles
Clouds Scattered Clouds 2500 ft
Heat Index 84 °F
Dew Point 61 °F
Humidity 45%
Rainfall in
Snow Depth Not available.
UV 6 out of 12
Pollen 10.30 out of 12
Air Quality Not available.
Flu Activity Not available.
METAR KTAZ 301555Z AUTO 21003KT 10SM SCT025 26/20 A3008 RMK AO2
Pressure 30.08 in
Visibility 10.0 miles
Clouds Scattered Clouds 2500 ft
Heat Index 84 °F
Dew Point 61 °F
Humidity 45%
Rainfall in
Snow Depth Not available.
UV 6 out of 12
Pollen 10.30 out of 12
Air Quality Not available.
Flu Activity Not available.
METAR KTAZ 301555Z AUTO 21003KT 10SM SCT025 26/20 A3008 RMK AO2

10-Day Weather Forecast

×

Almanac

Astronomy

Aug. 30, 2015 Rise Set
Actual Time
Civil Twilight
Nautical Twilight
Astronomical Twilight
Moon
Length of Visible Light
Length of Day
Tomorrow will be .
, % of the Moon is Illuminated

Today's Extremes

State Highs State Lows

Community

WunderPhotos

Upload Photos

1,851,002 photos uploaded!

WunderBlogs® & News

Nearby

Air Quality

  Air Quality AQ Index Pollutant
Not available.

Snow Depth

Station Depth Elevation

Earthquake Activity

City Distance Mag. Time & Date
Minimum magnitude displayed is 2.5.

Coastal Water Temperatures

Place Temperature

Stations

Nearby Weather Stations

Station Location Temp. Windchill Dew Point Humidity Wind Precip. Elev Updated Type